sensor_id;sensor_type;location;lat;lon;timestamp;temperature;humidity
21061;DHT22;10689;50.836;3.266;2022-09-09T00:02:01;16.20;99.90
21061;DHT22;10689;50.836;3.266;2022-09-09T00:04:37;16.20;99.90
21061;DHT22;10689;50.836;3.266;2022-09-09T00:15:20;16.10;99.90
21061;DHT22;10689;50.836;3.266;2022-09-09T00:23:38;16.10;99.90
21061;DHT22;10689;50.836;3.266;2022-09-09T00:29:05;16.20;99.90
21061;DHT22;10689;50.836;3.266;2022-09-09T00:31:35;16.20;99.90
21061;DHT22;10689;50.836;3.266;2022-09-09T00:34:19;16.30;99.90
21061;DHT22;10689;50.836;3.266;2022-09-09T00:36:49;16.20;99.90
21061;DHT22;10689;50.836;3.266;2022-09-09T00:39:37;16.30;99.90
21061;DHT22;10689;50.836;3.266;2022-09-09T00:42:18;16.30;99.90
21061;DHT22;10689;50.836;3.266;2022-09-09T00:45:09;16.20;99.90
21061;DHT22;10689;50.836;3.266;2022-09-09T00:47:50;16.20;99.90
21061;DHT22;10689;50.836;3.266;2022-09-09T00:57:52;16.10;99.90
21061;DHT22;10689;50.836;3.266;2022-09-09T01:00:23;16.00;99.90
21061;DHT22;10689;50.836;3.266;2022-09-09T01:06:13;16.00;99.90
21061;DHT22;10689;50.836;3.266;2022-09-09T01:14:30;15.80;99.90
21061;DHT22;10689;50.836;3.266;2022-09-09T01:25:27;15.80;99.90
21061;DHT22;10689;50.836;3.266;2022-09-09T01:28:00;15.80;99.90
21061;DHT22;10689;50.836;3.266;2022-09-09T01:30:28;15.80;99.90
21061;DHT22;10689;50.836;3.266;2022-09-09T01:32:56;15.80;99.90
21061;DHT22;10689;50.836;3.266;2022-09-09T01:37:58;15.70;99.90
21061;DHT22;10689;50.836;3.266;2022-09-09T01:40:25;15.70;99.90
21061;DHT22;10689;50.836;3.266;2022-09-09T01:42:52;15.70;99.90
21061;DHT22;10689;50.836;3.266;2022-09-09T01:45:18;15.70;99.90
21061;DHT22;10689;50.836;3.266;2022-09-09T01:47:45;15.70;99.90
21061;DHT22;10689;50.836;3.266;2022-09-09T01:50:14;15.80;99.90
21061;DHT22;10689;50.836;3.266;2022-09-09T01:52:43;15.80;99.90
21061;DHT22;10689;50.836;3.266;2022-09-09T01:55:10;15.80;99.90
21061;DHT22;10689;50.836;3.266;2022-09-09T01:57:56;15.80;99.90
21061;DHT22;10689;50.836;3.266;2022-09-09T02:00:28;15.80;99.90
21061;DHT22;10689;50.836;3.266;2022-09-09T02:03:00;15.90;99.90
21061;DHT22;10689;50.836;3.266;2022-09-09T02:05:48;15.90;99.90
21061;DHT22;10689;50.836;3.266;2022-09-09T02:08:20;16.00;99.90
21061;DHT22;10689;50.836;3.266;2022-09-09T02:10:48;16.00;99.90
21061;DHT22;10689;50.836;3.266;2022-09-09T02:13:18;16.00;99.90
21061;DHT22;10689;50.836;3.266;2022-09-09T02:16:10;16.10;99.90
21061;DHT22;10689;50.836;3.266;2022-09-09T02:18:46;16.10;99.90
21061;DHT22;10689;50.836;3.266;2022-09-09T02:21:13;16.10;99.90
21061;DHT22;10689;50.836;3.266;2022-09-09T02:23:41;16.10;99.90
21061;DHT22;10689;50.836;3.266;2022-09-09T02:26:09;16.10;99.90
21061;DHT22;10689;50.836;3.266;2022-09-09T02:28:37;16.10;99.90
21061;DHT22;10689;50.836;3.266;2022-09-09T02:31:04;16.10;99.90
21061;DHT22;10689;50.836;3.266;2022-09-09T02:33:34;16.10;99.90
21061;DHT22;10689;50.836;3.266;2022-09-09T02:36:02;16.10;99.90
21061;DHT22;10689;50.836;3.266;2022-09-09T02:38:32;16.10;99.90
21061;DHT22;10689;50.836;3.266;2022-09-09T02:40:58;16.10;99.90
21061;DHT22;10689;50.836;3.266;2022-09-09T02:43:24;16.10;99.90
21061;DHT22;10689;50.836;3.266;2022-09-09T02:49:09;16.00;99.90
21061;DHT22;10689;50.836;3.266;2022-09-09T02:54:27;16.20;99.90
21061;DHT22;10689;50.836;3.266;2022-09-09T02:56:59;16.10;99.90
21061;DHT22;10689;50.836;3.266;2022-09-09T02:59:27;16.10;99.90
21061;DHT22;10689;50.836;3.266;2022-09-09T03:01:53;16.20;99.90
21061;DHT22;10689;50.836;3.266;2022-09-09T03:04:18;16.20;99.90
21061;DHT22;10689;50.836;3.266;2022-09-09T03:06:44;16.30;99.90
21061;DHT22;10689;50.836;3.266;2022-09-09T03:09:10;16.30;99.90
21061;DHT22;10689;50.836;3.266;2022-09-09T03:11:36;16.30;99.90
21061;DHT22;10689;50.836;3.266;2022-09-09T03:14:04;16.40;99.90
21061;DHT22;10689;50.836;3.266;2022-09-09T03:16:29;16.40;99.90
21061;DHT22;10689;50.836;3.266;2022-09-09T03:18:55;16.40;99.90
21061;DHT22;10689;50.836;3.266;2022-09-09T03:21:21;16.40;99.90
21061;DHT22;10689;50.836;3.266;2022-09-09T03:23:47;16.40;99.90
21061;DHT22;10689;50.836;3.266;2022-09-09T03:26:12;16.50;99.90
21061;DHT22;10689;50.836;3.266;2022-09-09T03:28:41;16.40;99.90
21061;DHT22;10689;50.836;3.266;2022-09-09T03:31:07;16.40;99.90
21061;DHT22;10689;50.836;3.266;2022-09-09T03:33:38;16.50;99.90
21061;DHT22;10689;50.836;3.266;2022-09-09T03:36:05;16.50;99.90
21061;DHT22;10689;50.836;3.266;2022-09-09T03:38:32;16.50;99.90
21061;DHT22;10689;50.836;3.266;2022-09-09T03:40:59;16.50;99.90
21061;DHT22;10689;50.836;3.266;2022-09-09T03:43:27;16.60;99.90
21061;DHT22;10689;50.836;3.266;2022-09-09T03:45:53;16.50;99.90
21061;DHT22;10689;50.836;3.266;2022-09-09T03:48:22;16.50;99.90
21061;DHT22;10689;50.836;3.266;2022-09-09T03:50:53;16.60;99.90
21061;DHT22;10689;50.836;3.266;2022-09-09T03:53:21;16.60;99.90
21061;DHT22;10689;50.836;3.266;2022-09-09T03:55:50;16.60;99.90
21061;DHT22;10689;50.836;3.266;2022-09-09T03:58:18;16.60;99.90
21061;DHT22;10689;50.836;3.266;2022-09-09T04:01:02;16.60;99.90
21061;DHT22;10689;50.836;3.266;2022-09-09T04:03:29;16.60;99.90
21061;DHT22;10689;50.836;3.266;2022-09-09T04:05:56;16.70;99.90
21061;DHT22;10689;50.836;3.266;2022-09-09T04:08:22;16.60;99.90
21061;DHT22;10689;50.836;3.266;2022-09-09T04:10:51;16.70;99.90
21061;DHT22;10689;50.836;3.266;2022-09-09T04:13:17;16.60;99.90
21061;DHT22;10689;50.836;3.266;2022-09-09T04:15:44;16.70;99.90
21061;DHT22;10689;50.836;3.266;2022-09-09T04:18:15;16.60;99.90
21061;DHT22;10689;50.836;3.266;2022-09-09T04:20:41;16.60;99.90
21061;DHT22;10689;50.836;3.266;2022-09-09T04:23:09;16.60;99.90
21061;DHT22;10689;50.836;3.266;2022-09-09T04:25:34;16.60;99.90
21061;DHT22;10689;50.836;3.266;2022-09-09T04:28:00;16.50;99.90
21061;DHT22;10689;50.836;3.266;2022-09-09T04:30:26;16.50;99.90
21061;DHT22;10689;50.836;3.266;2022-09-09T04:32:52;16.60;99.90
21061;DHT22;10689;50.836;3.266;2022-09-09T04:35:18;16.50;99.90
21061;DHT22;10689;50.836;3.266;2022-09-09T04:37:45;16.50;99.90
21061;DHT22;10689;50.836;3.266;2022-09-09T04:40:11;16.60;99.90
21061;DHT22;10689;50.836;3.266;2022-09-09T04:42:37;16.60;99.90
21061;DHT22;10689;50.836;3.266;2022-09-09T04:45:03;16.60;99.90
21061;DHT22;10689;50.836;3.266;2022-09-09T04:47:28;16.60;99.90
21061;DHT22;10689;50.836;3.266;2022-09-09T04:49:54;16.60;99.90
21061;DHT22;10689;50.836;3.266;2022-09-09T04:52:20;16.60;99.90
21061;DHT22;10689;50.836;3.266;2022-09-09T04:54:46;16.60;99.90
21061;DHT22;10689;50.836;3.266;2022-09-09T04:57:15;16.60;99.90
21061;DHT22;10689;50.836;3.266;2022-09-09T04:59:41;16.60;99.90
21061;DHT22;10689;50.836;3.266;2022-09-09T05:02:07;16.70;99.90
21061;DHT22;10689;50.836;3.266;2022-09-09T05:04:32;16.70;99.90
21061;DHT22;10689;50.836;3.266;2022-09-09T05:06:58;16.70;99.90
21061;DHT22;10689;50.836;3.266;2022-09-09T05:09:24;16.70;99.90
21061;DHT22;10689;50.836;3.266;2022-09-09T05:11:50;16.70;99.90
21061;DHT22;10689;50.836;3.266;2022-09-09T05:14:17;16.70;99.90
21061;DHT22;10689;50.836;3.266;2022-09-09T05:16:45;16.70;99.90
21061;DHT22;10689;50.836;3.266;2022-09-09T05:19:11;16.60;99.90
21061;DHT22;10689;50.836;3.266;2022-09-09T05:21:37;16.70;99.90
21061;DHT22;10689;50.836;3.266;2022-09-09T05:24:03;16.70;99.90
21061;DHT22;10689;50.836;3.266;2022-09-09T05:26:29;16.60;99.90
21061;DHT22;10689;50.836;3.266;2022-09-09T05:28:55;16.50;99.90
21061;DHT22;10689;50.836;3.266;2022-09-09T05:31:21;16.50;99.90
21061;DHT22;10689;50.836;3.266;2022-09-09T05:33:47;16.50;99.90
21061;DHT22;10689;50.836;3.266;2022-09-09T05:36:19;16.40;99.90
21061;DHT22;10689;50.836;3.266;2022-09-09T05:38:46;16.30;99.90
21061;DHT22;10689;50.836;3.266;2022-09-09T05:41:13;16.30;99.90
21061;DHT22;10689;50.836;3.266;2022-09-09T05:43:41;16.30;99.90
21061;DHT22;10689;50.836;3.266;2022-09-09T05:46:09;16.40;99.90
21061;DHT22;10689;50.836;3.266;2022-09-09T05:48:37;16.40;99.90
21061;DHT22;10689;50.836;3.266;2022-09-09T05:51:04;16.30;99.90
21061;DHT22;10689;50.836;3.266;2022-09-09T05:53:32;16.30;99.90
21061;DHT22;10689;50.836;3.266;2022-09-09T05:56:13;16.30;99.90
21061;DHT22;10689;50.836;3.266;2022-09-09T05:58:40;16.30;99.90
21061;DHT22;10689;50.836;3.266;2022-09-09T06:01:13;16.30;99.90
21061;DHT22;10689;50.836;3.266;2022-09-09T06:03:41;16.30;99.90
21061;DHT22;10689;50.836;3.266;2022-09-09T06:06:12;16.30;99.90
21061;DHT22;10689;50.836;3.266;2022-09-09T06:08:40;16.30;99.90
21061;DHT22;10689;50.836;3.266;2022-09-09T06:11:10;16.40;99.90
21061;DHT22;10689;50.836;3.266;2022-09-09T06:13:36;16.40;99.90
21061;DHT22;10689;50.836;3.266;2022-09-09T06:16:12;16.40;99.90
21061;DHT22;10689;50.836;3.266;2022-09-09T06:18:38;16.50;99.90
21061;DHT22;10689;50.836;3.266;2022-09-09T06:21:07;16.50;99.90
21061;DHT22;10689;50.836;3.266;2022-09-09T06:23:34;16.50;99.90
21061;DHT22;10689;50.836;3.266;2022-09-09T06:26:12;16.50;99.90
21061;DHT22;10689;50.836;3.266;2022-09-09T06:28:38;16.60;99.90
21061;DHT22;10689;50.836;3.266;2022-09-09T06:31:06;16.50;99.90
21061;DHT22;10689;50.836;3.266;2022-09-09T06:33:36;16.50;99.90
21061;DHT22;10689;50.836;3.266;2022-09-09T06:36:16;16.60;99.90
21061;DHT22;10689;50.836;3.266;2022-09-09T06:38:43;16.60;99.90
21061;DHT22;10689;50.836;3.266;2022-09-09T06:41:11;16.60;99.90
21061;DHT22;10689;50.836;3.266;2022-09-09T06:43:37;16.50;99.90
21061;DHT22;10689;50.836;3.266;2022-09-09T06:46:11;16.50;99.90
21061;DHT22;10689;50.836;3.266;2022-09-09T06:48:39;16.40;99.90
21061;DHT22;10689;50.836;3.266;2022-09-09T06:51:19;16.40;99.90
21061;DHT22;10689;50.836;3.266;2022-09-09T06:53:46;16.30;99.90
21061;DHT22;10689;50.836;3.266;2022-09-09T06:56:22;16.30;99.90
21061;DHT22;10689;50.836;3.266;2022-09-09T06:58:50;16.30;99.90
21061;DHT22;10689;50.836;3.266;2022-09-09T07:01:21;16.30;99.90
21061;DHT22;10689;50.836;3.266;2022-09-09T07:03:48;16.30;99.90
21061;DHT22;10689;50.836;3.266;2022-09-09T07:06:21;16.30;99.90
21061;DHT22;10689;50.836;3.266;2022-09-09T07:08:55;16.20;99.90
21061;DHT22;10689;50.836;3.266;2022-09-09T07:11:22;16.20;99.90
21061;DHT22;10689;50.836;3.266;2022-09-09T07:13:49;16.20;99.90
21061;DHT22;10689;50.836;3.266;2022-09-09T07:16:17;16.20;99.90
21061;DHT22;10689;50.836;3.266;2022-09-09T07:18:43;16.10;99.90
21061;DHT22;10689;50.836;3.266;2022-09-09T07:21:11;16.10;99.90
21061;DHT22;10689;50.836;3.266;2022-09-09T07:23:40;16.00;99.90
21061;DHT22;10689;50.836;3.266;2022-09-09T07:26:11;16.10;99.90
21061;DHT22;10689;50.836;3.266;2022-09-09T07:28:37;16.10;99.90
21061;DHT22;10689;50.836;3.266;2022-09-09T07:31:05;16.10;99.90
21061;DHT22;10689;50.836;3.266;2022-09-09T07:33:33;16.20;99.90
21061;DHT22;10689;50.836;3.266;2022-09-09T07:36:09;16.20;99.90
21061;DHT22;10689;50.836;3.266;2022-09-09T07:38:45;16.20;99.90
21061;DHT22;10689;50.836;3.266;2022-09-09T07:41:13;16.20;99.90
21061;DHT22;10689;50.836;3.266;2022-09-09T07:43:41;16.20;99.90
21061;DHT22;10689;50.836;3.266;2022-09-09T07:46:07;16.20;99.90
21061;DHT22;10689;50.836;3.266;2022-09-09T07:48:33;16.10;99.90
21061;DHT22;10689;50.836;3.266;2022-09-09T07:51:14;16.20;99.90
21061;DHT22;10689;50.836;3.266;2022-09-09T07:53:44;16.30;99.90
21061;DHT22;10689;50.836;3.266;2022-09-09T07:56:14;16.40;99.90
21061;DHT22;10689;50.836;3.266;2022-09-09T07:58:40;16.50;99.90
21061;DHT22;10689;50.836;3.266;2022-09-09T08:01:10;16.60;99.90
21061;DHT22;10689;50.836;3.266;2022-09-09T08:03:37;16.60;99.90
21061;DHT22;10689;50.836;3.266;2022-09-09T08:06:05;16.60;99.90
21061;DHT22;10689;50.836;3.266;2022-09-09T08:08:32;16.60;99.90
21061;DHT22;10689;50.836;3.266;2022-09-09T08:11:17;16.70;99.90
21061;DHT22;10689;50.836;3.266;2022-09-09T08:13:43;16.70;99.90
21061;DHT22;10689;50.836;3.266;2022-09-09T08:18:35;16.80;99.90
21061;DHT22;10689;50.836;3.266;2022-09-09T08:21:16;16.80;99.90
21061;DHT22;10689;50.836;3.266;2022-09-09T08:23:44;16.90;99.90
21061;DHT22;10689;50.836;3.266;2022-09-09T08:26:12;16.90;99.90
21061;DHT22;10689;50.836;3.266;2022-09-09T08:28:39;17.20;99.90
21061;DHT22;10689;50.836;3.266;2022-09-09T08:33:32;17.30;99.90
21061;DHT22;10689;50.836;3.266;2022-09-09T08:35:59;17.40;99.90
21061;DHT22;10689;50.836;3.266;2022-09-09T08:38:24;17.50;99.90
21061;DHT22;10689;50.836;3.266;2022-09-09T08:40:53;17.60;99.90
21061;DHT22;10689;50.836;3.266;2022-09-09T08:43:25;17.70;99.90
21061;DHT22;10689;50.836;3.266;2022-09-09T08:46:11;17.90;99.90
21061;DHT22;10689;50.836;3.266;2022-09-09T08:49:02;18.00;99.90
21061;DHT22;10689;50.836;3.266;2022-09-09T08:51:32;18.20;99.90
21061;DHT22;10689;50.836;3.266;2022-09-09T08:54:00;18.30;99.90
21061;DHT22;10689;50.836;3.266;2022-09-09T08:56:31;18.30;99.90
21061;DHT22;10689;50.836;3.266;2022-09-09T08:59:00;18.40;99.90
21061;DHT22;10689;50.836;3.266;2022-09-09T09:05:15;18.60;99.90
21061;DHT22;10689;50.836;3.266;2022-09-09T09:07:53;18.70;99.90
21061;DHT22;10689;50.836;3.266;2022-09-09T09:10:48;18.90;99.90
21061;DHT22;10689;50.836;3.266;2022-09-09T09:16:10;19.20;99.90
21061;DHT22;10689;50.836;3.266;2022-09-09T09:18:38;19.20;99.90
21061;DHT22;10689;50.836;3.266;2022-09-09T09:23:41;19.30;99.90
21061;DHT22;10689;50.836;3.266;2022-09-09T09:26:09;19.30;99.90
21061;DHT22;10689;50.836;3.266;2022-09-09T09:28:39;19.30;99.90
21061;DHT22;10689;50.836;3.266;2022-09-09T09:31:08;19.40;99.90
21061;DHT22;10689;50.836;3.266;2022-09-09T09:36:07;19.50;99.90
21061;DHT22;10689;50.836;3.266;2022-09-09T09:38:35;19.50;99.90
21061;DHT22;10689;50.836;3.266;2022-09-09T09:41:01;19.50;99.90
21061;DHT22;10689;50.836;3.266;2022-09-09T09:43:29;19.50;99.90
21061;DHT22;10689;50.836;3.266;2022-09-09T09:45:56;19.50;99.90
21061;DHT22;10689;50.836;3.266;2022-09-09T09:48:24;19.40;99.90
21061;DHT22;10689;50.836;3.266;2022-09-09T09:51:02;19.50;99.90
21061;DHT22;10689;50.836;3.266;2022-09-09T09:53:32;19.40;99.90
21061;DHT22;10689;50.836;3.266;2022-09-09T09:56:02;19.50;99.90
21061;DHT22;10689;50.836;3.266;2022-09-09T09:58:31;19.60;99.90
21061;DHT22;10689;50.836;3.266;2022-09-09T10:01:00;19.70;99.90
21061;DHT22;10689;50.836;3.266;2022-09-09T10:03:31;19.90;99.90
21061;DHT22;10689;50.836;3.266;2022-09-09T10:05:57;19.90;99.90
21061;DHT22;10689;50.836;3.266;2022-09-09T10:08:25;19.90;99.90
21061;DHT22;10689;50.836;3.266;2022-09-09T10:19:53;20.00;99.90
21061;DHT22;10689;50.836;3.266;2022-09-09T10:22:33;20.00;99.90
21061;DHT22;10689;50.836;3.266;2022-09-09T10:25:36;19.90;99.90
21061;DHT22;10689;50.836;3.266;2022-09-09T10:33:50;20.20;99.90
21061;DHT22;10689;50.836;3.266;2022-09-09T10:36:22;20.40;99.90
21061;DHT22;10689;50.836;3.266;2022-09-09T10:39:16;20.50;99.90
21061;DHT22;10689;50.836;3.266;2022-09-09T10:44:51;20.80;99.90
21061;DHT22;10689;50.836;3.266;2022-09-09T10:50:23;20.90;99.90
21061;DHT22;10689;50.836;3.266;2022-09-09T10:53:08;20.90;99.90
21061;DHT22;10689;50.836;3.266;2022-09-09T10:55:45;21.00;99.90
21061;DHT22;10689;50.836;3.266;2022-09-09T10:58:35;21.00;99.90
21061;DHT22;10689;50.836;3.266;2022-09-09T11:01:13;21.20;99.90
21061;DHT22;10689;50.836;3.266;2022-09-09T11:03:42;21.20;99.90
21061;DHT22;10689;50.836;3.266;2022-09-09T11:06:18;21.10;99.90
21061;DHT22;10689;50.836;3.266;2022-09-09T11:08:45;21.20;99.90
21061;DHT22;10689;50.836;3.266;2022-09-09T11:11:53;21.20;99.90
21061;DHT22;10689;50.836;3.266;2022-09-09T11:14:31;21.10;99.90
21061;DHT22;10689;50.836;3.266;2022-09-09T11:17:02;21.10;99.90
21061;DHT22;10689;50.836;3.266;2022-09-09T11:19:34;21.30;99.90
21061;DHT22;10689;50.836;3.266;2022-09-09T11:24:54;21.20;99.90
21061;DHT22;10689;50.836;3.266;2022-09-09T11:27:32;21.10;99.90
21061;DHT22;10689;50.836;3.266;2022-09-09T11:30:20;21.00;99.90
21061;DHT22;10689;50.836;3.266;2022-09-09T11:35:45;20.80;99.90
21061;DHT22;10689;50.836;3.266;2022-09-09T11:40:41;20.90;99.90
21061;DHT22;10689;50.836;3.266;2022-09-09T11:43:19;21.00;99.90
21061;DHT22;10689;50.836;3.266;2022-09-09T11:45:59;21.00;99.90
21061;DHT22;10689;50.836;3.266;2022-09-09T11:48:36;21.00;99.90
21061;DHT22;10689;50.836;3.266;2022-09-09T11:53:29;21.30;99.90
21061;DHT22;10689;50.836;3.266;2022-09-09T11:56:02;21.50;99.90
21061;DHT22;10689;50.836;3.266;2022-09-09T11:58:41;21.60;99.90
21061;DHT22;10689;50.836;3.266;2022-09-09T12:01:26;21.80;99.90
21061;DHT22;10689;50.836;3.266;2022-09-09T12:06:44;21.90;99.90
21061;DHT22;10689;50.836;3.266;2022-09-09T12:17:27;21.90;99.90
21061;DHT22;10689;50.836;3.266;2022-09-09T12:28:20;22.40;99.90
21061;DHT22;10689;50.836;3.266;2022-09-09T12:33:47;22.60;99.90
21061;DHT22;10689;50.836;3.266;2022-09-09T12:36:27;22.80;99.90
21061;DHT22;10689;50.836;3.266;2022-09-09T12:38:56;23.00;99.90
21061;DHT22;10689;50.836;3.266;2022-09-09T12:41:27;23.20;99.90
21061;DHT22;10689;50.836;3.266;2022-09-09T12:44:09;23.30;99.90
21061;DHT22;10689;50.836;3.266;2022-09-09T12:46:41;23.20;99.90
21061;DHT22;10689;50.836;3.266;2022-09-09T12:49:31;23.20;99.90
21061;DHT22;10689;50.836;3.266;2022-09-09T12:52:03;23.30;99.90
21061;DHT22;10689;50.836;3.266;2022-09-09T12:54:32;23.20;99.90
21061;DHT22;10689;50.836;3.266;2022-09-09T12:56:58;23.20;99.90
21061;DHT22;10689;50.836;3.266;2022-09-09T12:59:26;23.40;99.90
21061;DHT22;10689;50.836;3.266;2022-09-09T13:01:59;23.40;99.90
21061;DHT22;10689;50.836;3.266;2022-09-09T13:04:25;23.70;99.90
21061;DHT22;10689;50.836;3.266;2022-09-09T13:06:50;24.00;99.90
21061;DHT22;10689;50.836;3.266;2022-09-09T13:09:18;24.00;99.90
21061;DHT22;10689;50.836;3.266;2022-09-09T13:11:53;24.10;99.90
21061;DHT22;10689;50.836;3.266;2022-09-09T13:14:32;23.90;99.90
21061;DHT22;10689;50.836;3.266;2022-09-09T13:17:02;24.10;99.90
21061;DHT22;10689;50.836;3.266;2022-09-09T13:19:37;24.30;99.90
21061;DHT22;10689;50.836;3.266;2022-09-09T13:22:34;24.30;99.90
21061;DHT22;10689;50.836;3.266;2022-09-09T13:25:25;24.30;99.90
21061;DHT22;10689;50.836;3.266;2022-09-09T13:30:25;24.50;99.90
21061;DHT22;10689;50.836;3.266;2022-09-09T13:38:31;24.40;99.90
21061;DHT22;10689;50.836;3.266;2022-09-09T13:41:06;23.90;99.90
21061;DHT22;10689;50.836;3.266;2022-09-09T13:43:38;23.70;99.90
21061;DHT22;10689;50.836;3.266;2022-09-09T13:46:39;23.60;99.90
21061;DHT22;10689;50.836;3.266;2022-09-09T13:54:05;23.80;99.90
21061;DHT22;10689;50.836;3.266;2022-09-09T13:56:35;23.60;99.90
21061;DHT22;10689;50.836;3.266;2022-09-09T13:59:02;23.30;99.90
21061;DHT22;10689;50.836;3.266;2022-09-09T14:01:28;23.40;99.90
21061;DHT22;10689;50.836;3.266;2022-09-09T14:03:54;23.60;99.90
21061;DHT22;10689;50.836;3.266;2022-09-09T14:06:20;24.00;99.90
21061;DHT22;10689;50.836;3.266;2022-09-09T14:08:50;23.90;99.90
21061;DHT22;10689;50.836;3.266;2022-09-09T14:11:17;24.20;99.90
21061;DHT22;10689;50.836;3.266;2022-09-09T14:13:43;23.80;99.90
21061;DHT22;10689;50.836;3.266;2022-09-09T14:16:09;23.30;99.90
21061;DHT22;10689;50.836;3.266;2022-09-09T14:18:35;23.00;99.90
21061;DHT22;10689;50.836;3.266;2022-09-09T14:21:03;22.80;99.90
21061;DHT22;10689;50.836;3.266;2022-09-09T14:23:29;22.80;99.90
21061;DHT22;10689;50.836;3.266;2022-09-09T14:25:55;23.00;99.90
21061;DHT22;10689;50.836;3.266;2022-09-09T14:28:21;23.00;99.90
21061;DHT22;10689;50.836;3.266;2022-09-09T14:30:47;23.00;99.90
21061;DHT22;10689;50.836;3.266;2022-09-09T14:33:14;23.00;99.90
21061;DHT22;10689;50.836;3.266;2022-09-09T14:35:41;22.60;99.90
21061;DHT22;10689;50.836;3.266;2022-09-09T14:38:08;22.70;99.90
21061;DHT22;10689;50.836;3.266;2022-09-09T14:40:35;22.90;99.90
21061;DHT22;10689;50.836;3.266;2022-09-09T14:43:01;22.90;99.90
21061;DHT22;10689;50.836;3.266;2022-09-09T14:45:27;22.80;99.90
21061;DHT22;10689;50.836;3.266;2022-09-09T14:47:53;22.90;99.90
21061;DHT22;10689;50.836;3.266;2022-09-09T14:50:20;22.90;99.90
21061;DHT22;10689;50.836;3.266;2022-09-09T14:52:46;22.60;99.90
21061;DHT22;10689;50.836;3.266;2022-09-09T14:55:13;22.70;99.90
21061;DHT22;10689;50.836;3.266;2022-09-09T14:57:40;22.70;99.90
21061;DHT22;10689;50.836;3.266;2022-09-09T15:00:08;22.50;99.90
21061;DHT22;10689;50.836;3.266;2022-09-09T15:02:34;22.50;99.90
21061;DHT22;10689;50.836;3.266;2022-09-09T15:05:00;22.20;99.90
21061;DHT22;10689;50.836;3.266;2022-09-09T15:07:27;21.70;99.90
21061;DHT22;10689;50.836;3.266;2022-09-09T15:09:54;20.50;99.90
21061;DHT22;10689;50.836;3.266;2022-09-09T15:12:19;18.80;99.90
21061;DHT22;10689;50.836;3.266;2022-09-09T15:14:46;18.00;99.90
21061;DHT22;10689;50.836;3.266;2022-09-09T15:17:12;17.60;99.90
21061;DHT22;10689;50.836;3.266;2022-09-09T15:19:38;17.70;99.90
21061;DHT22;10689;50.836;3.266;2022-09-09T15:22:04;17.80;99.90
21061;DHT22;10689;50.836;3.266;2022-09-09T15:24:34;18.00;99.90
21061;DHT22;10689;50.836;3.266;2022-09-09T15:27:00;18.30;99.90
21061;DHT22;10689;50.836;3.266;2022-09-09T15:29:26;18.20;99.90
21061;DHT22;10689;50.836;3.266;2022-09-09T15:31:54;18.50;99.90
21061;DHT22;10689;50.836;3.266;2022-09-09T15:34:20;19.10;99.90
21061;DHT22;10689;50.836;3.266;2022-09-09T15:36:47;19.80;99.90
21061;DHT22;10689;50.836;3.266;2022-09-09T15:39:16;20.20;99.90
21061;DHT22;10689;50.836;3.266;2022-09-09T15:41:42;20.40;99.90
21061;DHT22;10689;50.836;3.266;2022-09-09T15:44:09;20.20;99.90
21061;DHT22;10689;50.836;3.266;2022-09-09T15:46:43;19.90;99.90
21061;DHT22;10689;50.836;3.266;2022-09-09T15:49:20;19.70;99.90
21061;DHT22;10689;50.836;3.266;2022-09-09T15:52:00;19.60;99.90
21061;DHT22;10689;50.836;3.266;2022-09-09T15:54:32;19.40;99.90
21061;DHT22;10689;50.836;3.266;2022-09-09T15:56:59;19.50;99.90
21061;DHT22;10689;50.836;3.266;2022-09-09T15:59:27;19.50;99.90
21061;DHT22;10689;50.836;3.266;2022-09-09T16:01:53;19.50;99.90
21061;DHT22;10689;50.836;3.266;2022-09-09T16:04:21;19.80;99.90
21061;DHT22;10689;50.836;3.266;2022-09-09T16:06:55;20.00;99.90
21061;DHT22;10689;50.836;3.266;2022-09-09T16:09:23;20.00;99.90
21061;DHT22;10689;50.836;3.266;2022-09-09T16:11:48;19.50;99.90
21061;DHT22;10689;50.836;3.266;2022-09-09T16:14:14;19.20;99.90
21061;DHT22;10689;50.836;3.266;2022-09-09T16:16:42;19.40;99.90
21061;DHT22;10689;50.836;3.266;2022-09-09T16:19:10;19.50;99.90
21061;DHT22;10689;50.836;3.266;2022-09-09T16:21:42;19.60;99.90
21061;DHT22;10689;50.836;3.266;2022-09-09T16:24:10;19.70;99.90
21061;DHT22;10689;50.836;3.266;2022-09-09T16:26:38;19.70;99.90
21061;DHT22;10689;50.836;3.266;2022-09-09T16:29:04;19.90;99.90
21061;DHT22;10689;50.836;3.266;2022-09-09T16:31:31;19.90;99.90
21061;DHT22;10689;50.836;3.266;2022-09-09T16:34:00;20.00;99.90
21061;DHT22;10689;50.836;3.266;2022-09-09T16:36:28;19.80;99.90
21061;DHT22;10689;50.836;3.266;2022-09-09T16:39:00;19.60;99.90
21061;DHT22;10689;50.836;3.266;2022-09-09T16:41:27;19.50;99.90
21061;DHT22;10689;50.836;3.266;2022-09-09T16:43:59;19.50;99.90
21061;DHT22;10689;50.836;3.266;2022-09-09T16:46:27;19.70;99.90
21061;DHT22;10689;50.836;3.266;2022-09-09T16:48:57;19.60;99.90
21061;DHT22;10689;50.836;3.266;2022-09-09T16:51:26;19.60;99.90
21061;DHT22;10689;50.836;3.266;2022-09-09T16:53:53;19.30;99.90
21061;DHT22;10689;50.836;3.266;2022-09-09T16:56:27;19.20;99.90
21061;DHT22;10689;50.836;3.266;2022-09-09T16:58:55;19.20;99.90
21061;DHT22;10689;50.836;3.266;2022-09-09T17:01:26;19.10;99.90
21061;DHT22;10689;50.836;3.266;2022-09-09T17:03:57;19.10;99.90
21061;DHT22;10689;50.836;3.266;2022-09-09T17:06:23;18.70;99.90
21061;DHT22;10689;50.836;3.266;2022-09-09T17:08:54;18.70;99.90
21061;DHT22;10689;50.836;3.266;2022-09-09T17:11:20;18.60;99.90
21061;DHT22;10689;50.836;3.266;2022-09-09T17:13:47;18.80;99.90
21061;DHT22;10689;50.836;3.266;2022-09-09T17:16:15;18.70;99.90
21061;DHT22;10689;50.836;3.266;2022-09-09T17:18:41;18.70;99.90
21061;DHT22;10689;50.836;3.266;2022-09-09T17:21:13;18.80;99.90
21061;DHT22;10689;50.836;3.266;2022-09-09T17:23:40;19.00;99.90
21061;DHT22;10689;50.836;3.266;2022-09-09T17:26:08;18.80;99.90
21061;DHT22;10689;50.836;3.266;2022-09-09T17:28:36;18.80;99.90
21061;DHT22;10689;50.836;3.266;2022-09-09T17:31:02;18.70;99.90
21061;DHT22;10689;50.836;3.266;2022-09-09T17:33:30;18.70;99.90
21061;DHT22;10689;50.836;3.266;2022-09-09T17:36:00;18.70;99.90
21061;DHT22;10689;50.836;3.266;2022-09-09T17:38:27;18.70;99.90
21061;DHT22;10689;50.836;3.266;2022-09-09T17:41:07;18.70;99.90
21061;DHT22;10689;50.836;3.266;2022-09-09T17:43:34;18.60;99.90
21061;DHT22;10689;50.836;3.266;2022-09-09T17:48:38;18.40;99.90
21061;DHT22;10689;50.836;3.266;2022-09-09T17:51:09;18.50;99.90
21061;DHT22;10689;50.836;3.266;2022-09-09T17:53:40;18.50;99.90
21061;DHT22;10689;50.836;3.266;2022-09-09T17:56:09;18.40;99.90
21061;DHT22;10689;50.836;3.266;2022-09-09T17:58:35;18.40;99.90
21061;DHT22;10689;50.836;3.266;2022-09-09T18:01:06;18.20;99.90
21061;DHT22;10689;50.836;3.266;2022-09-09T18:03:36;18.20;99.90
21061;DHT22;10689;50.836;3.266;2022-09-09T18:06:04;18.30;99.90